sensor_id;sensor_type;location;lat;lon;timestamp;P1;durP1;ratioP1;P2;durP2;ratioP2
18170;SDS011;9210;48.358;10.902;2022-11-20T00:00:02;14.50;;;7.20;;
18170;SDS011;9210;48.358;10.902;2022-11-20T00:02:32;10.77;;;5.97;;
18170;SDS011;9210;48.358;10.902;2022-11-20T00:05:00;10.53;;;5.77;;
18170;SDS011;9210;48.358;10.902;2022-11-20T00:07:29;9.73;;;5.57;;
18170;SDS011;9210;48.358;10.902;2022-11-20T00:09:57;7.67;;;4.97;;
18170;SDS011;9210;48.358;10.902;2022-11-20T00:12:26;11.07;;;5.83;;
18170;SDS011;9210;48.358;10.902;2022-11-20T00:14:54;7.13;;;4.40;;
18170;SDS011;9210;48.358;10.902;2022-11-20T00:17:24;11.00;;;5.37;;
18170;SDS011;9210;48.358;10.902;2022-11-20T00:19:53;8.70;;;5.50;;
18170;SDS011;9210;48.358;10.902;2022-11-20T00:22:21;9.93;;;5.43;;
18170;SDS011;9210;48.358;10.902;2022-11-20T00:24:50;8.83;;;5.30;;
18170;SDS011;9210;48.358;10.902;2022-11-20T00:27:19;7.97;;;5.10;;
18170;SDS011;9210;48.358;10.902;2022-11-20T00:29:47;8.63;;;5.20;;
18170;SDS011;9210;48.358;10.902;2022-11-20T00:32:16;7.33;;;4.63;;
18170;SDS011;9210;48.358;10.902;2022-11-20T00:34:46;9.50;;;4.57;;
18170;SDS011;9210;48.358;10.902;2022-11-20T00:37:15;7.97;;;4.73;;
18170;SDS011;9210;48.358;10.902;2022-11-20T00:39:43;5.93;;;3.90;;
18170;SDS011;9210;48.358;10.902;2022-11-20T00:42:12;9.60;;;4.63;;
18170;SDS011;9210;48.358;10.902;2022-11-20T00:44:40;6.37;;;4.23;;
18170;SDS011;9210;48.358;10.902;2022-11-20T00:47:09;7.77;;;4.90;;
18170;SDS011;9210;48.358;10.902;2022-11-20T00:49:37;7.23;;;4.77;;
18170;SDS011;9210;48.358;10.902;2022-11-20T00:52:07;8.97;;;5.10;;
18170;SDS011;9210;48.358;10.902;2022-11-20T00:54:36;9.07;;;4.90;;
18170;SDS011;9210;48.358;10.902;2022-11-20T00:57:04;9.70;;;5.03;;
18170;SDS011;9210;48.358;10.902;2022-11-20T00:59:33;7.97;;;4.50;;
18170;SDS011;9210;48.358;10.902;2022-11-20T01:02:01;6.80;;;4.37;;
18170;SDS011;9210;48.358;10.902;2022-11-20T01:04:30;7.17;;;4.70;;
18170;SDS011;9210;48.358;10.902;2022-11-20T01:06:59;6.43;;;4.30;;
18170;SDS011;9210;48.358;10.902;2022-11-20T01:09:29;8.03;;;4.67;;
18170;SDS011;9210;48.358;10.902;2022-11-20T01:11:57;7.07;;;4.70;;
18170;SDS011;9210;48.358;10.902;2022-11-20T01:14:26;7.47;;;4.63;;
18170;SDS011;9210;48.358;10.902;2022-11-20T01:16:55;7.83;;;5.00;;
18170;SDS011;9210;48.358;10.902;2022-11-20T01:19:23;6.80;;;4.27;;
18170;SDS011;9210;48.358;10.902;2022-11-20T01:21:52;9.47;;;5.10;;
18170;SDS011;9210;48.358;10.902;2022-11-20T01:24:22;7.80;;;4.73;;
18170;SDS011;9210;48.358;10.902;2022-11-20T01:26:52;8.27;;;4.90;;
18170;SDS011;9210;48.358;10.902;2022-11-20T01:29:21;7.43;;;4.50;;
18170;SDS011;9210;48.358;10.902;2022-11-20T01:31:50;6.83;;;4.00;;
18170;SDS011;9210;48.358;10.902;2022-11-20T01:34:19;5.73;;;4.00;;
18170;SDS011;9210;48.358;10.902;2022-11-20T01:36:48;7.27;;;4.97;;
18170;SDS011;9210;48.358;10.902;2022-11-20T01:39:18;7.73;;;4.47;;
18170;SDS011;9210;48.358;10.902;2022-11-20T01:41:47;7.67;;;4.50;;
18170;SDS011;9210;48.358;10.902;2022-11-20T01:47:28;8.43;;;4.80;;
18170;SDS011;9210;48.358;10.902;2022-11-20T01:49:59;6.27;;;4.07;;
18170;SDS011;9210;48.358;10.902;2022-11-20T01:52:30;7.63;;;4.97;;
18170;SDS011;9210;48.358;10.902;2022-11-20T01:55:03;6.07;;;4.37;;
18170;SDS011;9210;48.358;10.902;2022-11-20T01:57:32;7.83;;;4.40;;
18170;SDS011;9210;48.358;10.902;2022-11-20T02:00:03;6.57;;;3.87;;
18170;SDS011;9210;48.358;10.902;2022-11-20T02:02:39;10.73;;;4.40;;
18170;SDS011;9210;48.358;10.902;2022-11-20T02:05:12;6.67;;;4.53;;
18170;SDS011;9210;48.358;10.902;2022-11-20T02:07:42;7.40;;;4.47;;
18170;SDS011;9210;48.358;10.902;2022-11-20T02:10:11;7.63;;;4.73;;
18170;SDS011;9210;48.358;10.902;2022-11-20T02:12:40;8.03;;;4.70;;
18170;SDS011;9210;48.358;10.902;2022-11-20T02:15:26;8.13;;;4.17;;
18170;SDS011;9210;48.358;10.902;2022-11-20T02:17:57;7.30;;;4.70;;
18170;SDS011;9210;48.358;10.902;2022-11-20T02:20:25;7.77;;;4.90;;
18170;SDS011;9210;48.358;10.902;2022-11-20T02:22:55;9.43;;;5.33;;
18170;SDS011;9210;48.358;10.902;2022-11-20T02:25:26;8.40;;;4.53;;
18170;SDS011;9210;48.358;10.902;2022-11-20T02:27:56;7.73;;;4.77;;
18170;SDS011;9210;48.358;10.902;2022-11-20T02:30:24;7.10;;;4.37;;
18170;SDS011;9210;48.358;10.902;2022-11-20T02:32:53;8.17;;;4.67;;
18170;SDS011;9210;48.358;10.902;2022-11-20T02:35:41;6.53;;;4.50;;
18170;SDS011;9210;48.358;10.902;2022-11-20T02:38:09;6.97;;;4.37;;
18170;SDS011;9210;48.358;10.902;2022-11-20T02:40:39;8.47;;;4.30;;
18170;SDS011;9210;48.358;10.902;2022-11-20T02:43:08;9.03;;;4.20;;
18170;SDS011;9210;48.358;10.902;2022-11-20T02:45:37;8.07;;;4.40;;
18170;SDS011;9210;48.358;10.902;2022-11-20T02:48:05;8.80;;;4.70;;
18170;SDS011;9210;48.358;10.902;2022-11-20T02:50:36;8.67;;;4.83;;
18170;SDS011;9210;48.358;10.902;2022-11-20T02:53:05;7.93;;;4.57;;
18170;SDS011;9210;48.358;10.902;2022-11-20T02:55:34;7.33;;;4.90;;
18170;SDS011;9210;48.358;10.902;2022-11-20T02:58:04;6.47;;;4.40;;
18170;SDS011;9210;48.358;10.902;2022-11-20T03:00:33;7.57;;;5.07;;
18170;SDS011;9210;48.358;10.902;2022-11-20T03:03:01;7.07;;;4.50;;
18170;SDS011;9210;48.358;10.902;2022-11-20T03:05:30;6.30;;;4.77;;
18170;SDS011;9210;48.358;10.902;2022-11-20T03:07:58;6.43;;;4.60;;
18170;SDS011;9210;48.358;10.902;2022-11-20T03:10:27;7.87;;;4.43;;
18170;SDS011;9210;48.358;10.902;2022-11-20T03:12:55;7.30;;;4.40;;
18170;SDS011;9210;48.358;10.902;2022-11-20T03:15:25;8.90;;;4.80;;
18170;SDS011;9210;48.358;10.902;2022-11-20T03:17:54;7.67;;;4.83;;
18170;SDS011;9210;48.358;10.902;2022-11-20T03:20:22;7.30;;;4.40;;
18170;SDS011;9210;48.358;10.902;2022-11-20T03:22:52;9.17;;;4.93;;
18170;SDS011;9210;48.358;10.902;2022-11-20T03:25:21;7.07;;;4.37;;
18170;SDS011;9210;48.358;10.902;2022-11-20T03:27:50;7.03;;;4.47;;
18170;SDS011;9210;48.358;10.902;2022-11-20T03:30:18;7.37;;;4.73;;
18170;SDS011;9210;48.358;10.902;2022-11-20T03:32:53;6.87;;;4.53;;
18170;SDS011;9210;48.358;10.902;2022-11-20T03:35:22;10.43;;;4.67;;
18170;SDS011;9210;48.358;10.902;2022-11-20T03:37:50;8.57;;;4.03;;
18170;SDS011;9210;48.358;10.902;2022-11-20T03:40:19;7.83;;;4.30;;
18170;SDS011;9210;48.358;10.902;2022-11-20T03:42:47;7.23;;;4.47;;
18170;SDS011;9210;48.358;10.902;2022-11-20T03:45:16;6.80;;;4.40;;
18170;SDS011;9210;48.358;10.902;2022-11-20T03:47:45;8.03;;;4.50;;
18170;SDS011;9210;48.358;10.902;2022-11-20T03:50:15;5.50;;;4.07;;
18170;SDS011;9210;48.358;10.902;2022-11-20T03:52:44;7.03;;;3.80;;
18170;SDS011;9210;48.358;10.902;2022-11-20T03:55:12;6.47;;;3.80;;
18170;SDS011;9210;48.358;10.902;2022-11-20T03:57:41;8.23;;;4.30;;
18170;SDS011;9210;48.358;10.902;2022-11-20T04:00:10;7.27;;;4.00;;
18170;SDS011;9210;48.358;10.902;2022-11-20T04:02:38;6.07;;;3.60;;
18170;SDS011;9210;48.358;10.902;2022-11-20T04:05:07;7.73;;;4.17;;
18170;SDS011;9210;48.358;10.902;2022-11-20T04:07:37;7.27;;;4.30;;
18170;SDS011;9210;48.358;10.902;2022-11-20T04:10:05;5.30;;;3.67;;
18170;SDS011;9210;48.358;10.902;2022-11-20T04:12:34;7.10;;;4.03;;
18170;SDS011;9210;48.358;10.902;2022-11-20T04:15:03;7.07;;;4.17;;
18170;SDS011;9210;48.358;10.902;2022-11-20T04:17:31;6.13;;;3.90;;
18170;SDS011;9210;48.358;10.902;2022-11-20T04:20:02;5.00;;;3.93;;
18170;SDS011;9210;48.358;10.902;2022-11-20T04:22:32;6.73;;;3.80;;
18170;SDS011;9210;48.358;10.902;2022-11-20T04:25:02;6.13;;;4.30;;
18170;SDS011;9210;48.358;10.902;2022-11-20T04:27:33;5.93;;;3.60;;
18170;SDS011;9210;48.358;10.902;2022-11-20T04:30:02;5.70;;;3.77;;
18170;SDS011;9210;48.358;10.902;2022-11-20T04:32:30;7.70;;;4.17;;
18170;SDS011;9210;48.358;10.902;2022-11-20T04:34:59;5.50;;;3.77;;
18170;SDS011;9210;48.358;10.902;2022-11-20T04:37:27;6.87;;;3.67;;
18170;SDS011;9210;48.358;10.902;2022-11-20T04:39:56;5.57;;;3.80;;
18170;SDS011;9210;48.358;10.902;2022-11-20T04:42:26;6.10;;;3.63;;
18170;SDS011;9210;48.358;10.902;2022-11-20T04:44:57;5.30;;;3.63;;
18170;SDS011;9210;48.358;10.902;2022-11-20T04:47:26;5.40;;;3.50;;
18170;SDS011;9210;48.358;10.902;2022-11-20T04:49:54;4.80;;;3.47;;
18170;SDS011;9210;48.358;10.902;2022-11-20T04:52:23;6.57;;;3.40;;
18170;SDS011;9210;48.358;10.902;2022-11-20T04:54:51;4.73;;;3.23;;
18170;SDS011;9210;48.358;10.902;2022-11-20T04:57:20;4.30;;;3.17;;
18170;SDS011;9210;48.358;10.902;2022-11-20T04:59:50;6.60;;;4.10;;
18170;SDS011;9210;48.358;10.902;2022-11-20T05:02:19;4.63;;;3.23;;
18170;SDS011;9210;48.358;10.902;2022-11-20T05:04:48;6.53;;;3.77;;
18170;SDS011;9210;48.358;10.902;2022-11-20T05:07:16;8.13;;;3.73;;
18170;SDS011;9210;48.358;10.902;2022-11-20T05:09:45;5.83;;;3.73;;
18170;SDS011;9210;48.358;10.902;2022-11-20T05:12:13;4.00;;;3.20;;
18170;SDS011;9210;48.358;10.902;2022-11-20T05:14:42;5.67;;;3.40;;
18170;SDS011;9210;48.358;10.902;2022-11-20T05:17:12;8.27;;;3.80;;
18170;SDS011;9210;48.358;10.902;2022-11-20T05:19:43;10.73;;;4.07;;
18170;SDS011;9210;48.358;10.902;2022-11-20T05:22:18;6.87;;;3.50;;
18170;SDS011;9210;48.358;10.902;2022-11-20T05:24:46;5.70;;;3.60;;
18170;SDS011;9210;48.358;10.902;2022-11-20T05:27:15;7.40;;;3.60;;
18170;SDS011;9210;48.358;10.902;2022-11-20T05:29:43;4.77;;;3.50;;
18170;SDS011;9210;48.358;10.902;2022-11-20T05:32:13;5.80;;;3.60;;
18170;SDS011;9210;48.358;10.902;2022-11-20T05:34:41;4.83;;;3.20;;
18170;SDS011;9210;48.358;10.902;2022-11-20T05:37:10;5.43;;;3.17;;
18170;SDS011;9210;48.358;10.902;2022-11-20T05:39:38;4.03;;;3.03;;
18170;SDS011;9210;48.358;10.902;2022-11-20T05:42:07;4.43;;;3.00;;
18170;SDS011;9210;48.358;10.902;2022-11-20T05:44:53;7.50;;;2.97;;
18170;SDS011;9210;48.358;10.902;2022-11-20T05:47:22;7.57;;;3.07;;
18170;SDS011;9210;48.358;10.902;2022-11-20T05:49:51;4.90;;;3.00;;
18170;SDS011;9210;48.358;10.902;2022-11-20T05:52:19;5.50;;;3.20;;
18170;SDS011;9210;48.358;10.902;2022-11-20T05:54:48;4.33;;;2.73;;
18170;SDS011;9210;48.358;10.902;2022-11-20T05:57:19;6.63;;;3.10;;
18170;SDS011;9210;48.358;10.902;2022-11-20T05:59:47;6.87;;;3.27;;
18170;SDS011;9210;48.358;10.902;2022-11-20T06:02:18;6.20;;;3.37;;
18170;SDS011;9210;48.358;10.902;2022-11-20T06:04:48;6.80;;;3.37;;
18170;SDS011;9210;48.358;10.902;2022-11-20T06:07:16;4.80;;;2.63;;
18170;SDS011;9210;48.358;10.902;2022-11-20T06:09:44;3.70;;;2.93;;
18170;SDS011;9210;48.358;10.902;2022-11-20T06:12:13;4.93;;;2.90;;
18170;SDS011;9210;48.358;10.902;2022-11-20T06:14:41;5.67;;;3.40;;
18170;SDS011;9210;48.358;10.902;2022-11-20T06:17:10;7.07;;;3.47;;
18170;SDS011;9210;48.358;10.902;2022-11-20T06:19:38;4.93;;;3.17;;
18170;SDS011;9210;48.358;10.902;2022-11-20T06:22:08;4.20;;;2.93;;
18170;SDS011;9210;48.358;10.902;2022-11-20T06:24:36;4.20;;;2.93;;
18170;SDS011;9210;48.358;10.902;2022-11-20T06:27:05;4.43;;;2.70;;
18170;SDS011;9210;48.358;10.902;2022-11-20T06:29:33;3.83;;;2.87;;
18170;SDS011;9210;48.358;10.902;2022-11-20T06:32:02;5.43;;;3.33;;
18170;SDS011;9210;48.358;10.902;2022-11-20T06:34:30;5.10;;;2.87;;
18170;SDS011;9210;48.358;10.902;2022-11-20T06:36:59;4.27;;;2.90;;
18170;SDS011;9210;48.358;10.902;2022-11-20T06:39:28;5.10;;;3.27;;
18170;SDS011;9210;48.358;10.902;2022-11-20T06:41:57;4.53;;;2.87;;
18170;SDS011;9210;48.358;10.902;2022-11-20T06:44:25;5.20;;;3.00;;
18170;SDS011;9210;48.358;10.902;2022-11-20T06:46:54;4.80;;;3.13;;
18170;SDS011;9210;48.358;10.902;2022-11-20T06:49:22;4.47;;;3.23;;
18170;SDS011;9210;48.358;10.902;2022-11-20T06:51:51;3.67;;;2.70;;
18170;SDS011;9210;48.358;10.902;2022-11-20T06:54:20;4.30;;;2.53;;
18170;SDS011;9210;48.358;10.902;2022-11-20T06:56:50;6.03;;;3.00;;
18170;SDS011;9210;48.358;10.902;2022-11-20T06:59:19;6.47;;;3.13;;
18170;SDS011;9210;48.358;10.902;2022-11-20T07:01:48;4.10;;;2.83;;
18170;SDS011;9210;48.358;10.902;2022-11-20T07:04:16;4.67;;;2.90;;
18170;SDS011;9210;48.358;10.902;2022-11-20T07:06:45;5.33;;;2.90;;
18170;SDS011;9210;48.358;10.902;2022-11-20T07:09:13;3.93;;;2.87;;
18170;SDS011;9210;48.358;10.902;2022-11-20T07:11:42;3.40;;;2.47;;
18170;SDS011;9210;48.358;10.902;2022-11-20T07:14:12;4.63;;;2.70;;
18170;SDS011;9210;48.358;10.902;2022-11-20T07:16:40;4.10;;;3.00;;
18170;SDS011;9210;48.358;10.902;2022-11-20T07:19:09;4.47;;;2.80;;
18170;SDS011;9210;48.358;10.902;2022-11-20T07:21:38;5.43;;;2.90;;
18170;SDS011;9210;48.358;10.902;2022-11-20T07:24:06;3.70;;;2.70;;
18170;SDS011;9210;48.358;10.902;2022-11-20T07:26:34;5.00;;;3.07;;
18170;SDS011;9210;48.358;10.902;2022-11-20T07:29:03;7.73;;;2.97;;
18170;SDS011;9210;48.358;10.902;2022-11-20T07:31:33;4.43;;;2.77;;
18170;SDS011;9210;48.358;10.902;2022-11-20T07:34:01;5.47;;;3.00;;
18170;SDS011;9210;48.358;10.902;2022-11-20T07:36:30;4.93;;;2.97;;
18170;SDS011;9210;48.358;10.902;2022-11-20T07:38:58;4.87;;;2.70;;
18170;SDS011;9210;48.358;10.902;2022-11-20T07:41:27;4.20;;;2.93;;
18170;SDS011;9210;48.358;10.902;2022-11-20T07:43:55;4.93;;;3.20;;
18170;SDS011;9210;48.358;10.902;2022-11-20T07:46:24;4.80;;;2.93;;
18170;SDS011;9210;48.358;10.902;2022-11-20T07:48:54;5.70;;;3.13;;
18170;SDS011;9210;48.358;10.902;2022-11-20T07:51:22;4.53;;;2.60;;
18170;SDS011;9210;48.358;10.902;2022-11-20T07:53:52;3.77;;;2.80;;
18170;SDS011;9210;48.358;10.902;2022-11-20T07:56:20;7.10;;;3.10;;
18170;SDS011;9210;48.358;10.902;2022-11-20T07:58:49;3.90;;;2.80;;
18170;SDS011;9210;48.358;10.902;2022-11-20T08:01:17;4.60;;;2.90;;
18170;SDS011;9210;48.358;10.902;2022-11-20T08:03:45;9.53;;;2.87;;
18170;SDS011;9210;48.358;10.902;2022-11-20T08:06:15;5.33;;;2.70;;
18170;SDS011;9210;48.358;10.902;2022-11-20T08:08:44;5.27;;;2.87;;
18170;SDS011;9210;48.358;10.902;2022-11-20T08:11:13;5.10;;;2.63;;
18170;SDS011;9210;48.358;10.902;2022-11-20T08:13:59;4.20;;;2.80;;
18170;SDS011;9210;48.358;10.902;2022-11-20T08:16:40;4.17;;;2.70;;
18170;SDS011;9210;48.358;10.902;2022-11-20T08:19:08;3.67;;;2.40;;
18170;SDS011;9210;48.358;10.902;2022-11-20T08:21:38;4.20;;;2.50;;
18170;SDS011;9210;48.358;10.902;2022-11-20T08:24:07;5.43;;;2.80;;
18170;SDS011;9210;48.358;10.902;2022-11-20T08:26:36;4.50;;;2.43;;
18170;SDS011;9210;48.358;10.902;2022-11-20T08:29:05;4.53;;;2.60;;
18170;SDS011;9210;48.358;10.902;2022-11-20T08:31:33;3.93;;;2.50;;
18170;SDS011;9210;48.358;10.902;2022-11-20T08:34:02;6.20;;;2.40;;
18170;SDS011;9210;48.358;10.902;2022-11-20T08:36:35;4.17;;;2.50;;
18170;SDS011;9210;48.358;10.902;2022-11-20T08:39:04;3.90;;;2.60;;
18170;SDS011;9210;48.358;10.902;2022-11-20T08:41:33;4.33;;;2.70;;
18170;SDS011;9210;48.358;10.902;2022-11-20T08:44:03;6.10;;;3.00;;
18170;SDS011;9210;48.358;10.902;2022-11-20T08:46:33;6.53;;;2.70;;
18170;SDS011;9210;48.358;10.902;2022-11-20T08:49:03;3.97;;;2.60;;
18170;SDS011;9210;48.358;10.902;2022-11-20T08:51:32;6.50;;;2.83;;
18170;SDS011;9210;48.358;10.902;2022-11-20T08:54:01;4.27;;;2.70;;
18170;SDS011;9210;48.358;10.902;2022-11-20T08:56:31;4.93;;;3.20;;
18170;SDS011;9210;48.358;10.902;2022-11-20T08:58:59;4.57;;;2.73;;
18170;SDS011;9210;48.358;10.902;2022-11-20T09:01:48;5.10;;;3.00;;
18170;SDS011;9210;48.358;10.902;2022-11-20T09:04:16;5.47;;;2.90;;
18170;SDS011;9210;48.358;10.902;2022-11-20T09:06:45;4.83;;;2.83;;
18170;SDS011;9210;48.358;10.902;2022-11-20T09:09:17;6.33;;;2.63;;
18170;SDS011;9210;48.358;10.902;2022-11-20T09:11:47;5.00;;;2.63;;
18170;SDS011;9210;48.358;10.902;2022-11-20T09:14:17;10.47;;;3.37;;
18170;SDS011;9210;48.358;10.902;2022-11-20T09:16:45;4.90;;;2.90;;
18170;SDS011;9210;48.358;10.902;2022-11-20T09:19:14;5.03;;;3.17;;
18170;SDS011;9210;48.358;10.902;2022-11-20T09:22:01;6.73;;;3.53;;
18170;SDS011;9210;48.358;10.902;2022-11-20T09:24:29;4.93;;;2.97;;
18170;SDS011;9210;48.358;10.902;2022-11-20T09:27:02;4.20;;;2.90;;
18170;SDS011;9210;48.358;10.902;2022-11-20T09:29:30;5.23;;;3.20;;
18170;SDS011;9210;48.358;10.902;2022-11-20T09:31:59;3.93;;;2.60;;
18170;SDS011;9210;48.358;10.902;2022-11-20T09:34:27;4.80;;;3.30;;
18170;SDS011;9210;48.358;10.902;2022-11-20T09:36:56;3.73;;;2.67;;
18170;SDS011;9210;48.358;10.902;2022-11-20T09:39:29;2.87;;;2.33;;
18170;SDS011;9210;48.358;10.902;2022-11-20T09:42:13;4.10;;;2.50;;
18170;SDS011;9210;48.358;10.902;2022-11-20T09:45:02;3.50;;;2.30;;
18170;SDS011;9210;48.358;10.902;2022-11-20T09:47:36;4.93;;;2.70;;
18170;SDS011;9210;48.358;10.902;2022-11-20T09:50:10;3.57;;;2.17;;
18170;SDS011;9210;48.358;10.902;2022-11-20T09:52:48;3.93;;;2.13;;
18170;SDS011;9210;48.358;10.902;2022-11-20T09:55:20;3.93;;;2.13;;
18170;SDS011;9210;48.358;10.902;2022-11-20T09:57:50;3.97;;;2.10;;
18170;SDS011;9210;48.358;10.902;2022-11-20T10:00:19;3.53;;;2.00;;
18170;SDS011;9210;48.358;10.902;2022-11-20T10:02:51;2.60;;;1.87;;
18170;SDS011;9210;48.358;10.902;2022-11-20T10:05:22;3.63;;;2.40;;
18170;SDS011;9210;48.358;10.902;2022-11-20T10:07:52;3.00;;;1.97;;
18170;SDS011;9210;48.358;10.902;2022-11-20T10:10:28;2.33;;;1.90;;
18170;SDS011;9210;48.358;10.902;2022-11-20T10:13:09;3.20;;;2.00;;
18170;SDS011;9210;48.358;10.902;2022-11-20T10:15:43;3.17;;;2.10;;
18170;SDS011;9210;48.358;10.902;2022-11-20T10:18:19;5.97;;;2.30;;
18170;SDS011;9210;48.358;10.902;2022-11-20T10:20:52;3.50;;;2.03;;
18170;SDS011;9210;48.358;10.902;2022-11-20T10:23:30;3.20;;;2.20;;
18170;SDS011;9210;48.358;10.902;2022-11-20T10:26:05;3.03;;;1.83;;
18170;SDS011;9210;48.358;10.902;2022-11-20T10:28:46;3.10;;;2.00;;
18170;SDS011;9210;48.358;10.902;2022-11-20T10:31:26;3.43;;;1.97;;
18170;SDS011;9210;48.358;10.902;2022-11-20T10:33:56;3.67;;;1.90;;
18170;SDS011;9210;48.358;10.902;2022-11-20T10:36:47;3.43;;;2.10;;
18170;SDS011;9210;48.358;10.902;2022-11-20T10:39:18;3.03;;;1.80;;
18170;SDS011;9210;48.358;10.902;2022-11-20T10:41:50;2.53;;;1.70;;
18170;SDS011;9210;48.358;10.902;2022-11-20T10:44:24;2.50;;;1.70;;
18170;SDS011;9210;48.358;10.902;2022-11-20T10:47:12;2.60;;;1.40;;
18170;SDS011;9210;48.358;10.902;2022-11-20T10:49:42;3.17;;;2.00;;
18170;SDS011;9210;48.358;10.902;2022-11-20T10:52:13;3.10;;;1.60;;
18170;SDS011;9210;48.358;10.902;2022-11-20T10:54:46;2.80;;;1.70;;
18170;SDS011;9210;48.358;10.902;2022-11-20T10:57:19;2.20;;;1.50;;
18170;SDS011;9210;48.358;10.902;2022-11-20T10:59:54;2.60;;;1.80;;
18170;SDS011;9210;48.358;10.902;2022-11-20T11:02:24;5.40;;;1.80;;
18170;SDS011;9210;48.358;10.902;2022-11-20T11:04:59;2.70;;;1.40;;
18170;SDS011;9210;48.358;10.902;2022-11-20T11:07:37;2.80;;;1.63;;
18170;SDS011;9210;48.358;10.902;2022-11-20T11:10:13;3.07;;;1.70;;
18170;SDS011;9210;48.358;10.902;2022-11-20T11:12:43;1.50;;;1.30;;
18170;SDS011;9210;48.358;10.902;2022-11-20T11:15:14;1.90;;;1.50;;
18170;SDS011;9210;48.358;10.902;2022-11-20T11:17:46;2.43;;;1.67;;
18170;SDS011;9210;48.358;10.902;2022-11-20T11:20:16;3.30;;;1.70;;
18170;SDS011;9210;48.358;10.902;2022-11-20T11:22:46;2.23;;;1.40;;
18170;SDS011;9210;48.358;10.902;2022-11-20T11:25:26;3.17;;;1.40;;
18170;SDS011;9210;48.358;10.902;2022-11-20T11:27:55;2.93;;;1.60;;
18170;SDS011;9210;48.358;10.902;2022-11-20T11:30:26;3.00;;;1.77;;
18170;SDS011;9210;48.358;10.902;2022-11-20T11:33:02;5.17;;;1.53;;
18170;SDS011;9210;48.358;10.902;2022-11-20T11:35:32;4.40;;;2.10;;
18170;SDS011;9210;48.358;10.902;2022-11-20T11:38:04;30.27;;;2.77;;
18170;SDS011;9210;48.358;10.902;2022-11-20T11:40:33;3.53;;;1.63;;
18170;SDS011;9210;48.358;10.902;2022-11-20T11:43:04;2.03;;;1.47;;
18170;SDS011;9210;48.358;10.902;2022-11-20T11:45:57;2.77;;;1.43;;
18170;SDS011;9210;48.358;10.902;2022-11-20T11:48:25;2.80;;;1.40;;
18170;SDS011;9210;48.358;10.902;2022-11-20T11:50:54;1.87;;;1.50;;
18170;SDS011;9210;48.358;10.902;2022-11-20T11:53:23;2.53;;;1.60;;
18170;SDS011;9210;48.358;10.902;2022-11-20T11:55:55;2.70;;;2.00;;
18170;SDS011;9210;48.358;10.902;2022-11-20T11:58:30;3.23;;;1.70;;
18170;SDS011;9210;48.358;10.902;2022-11-20T12:01:03;3.80;;;1.70;;
18170;SDS011;9210;48.358;10.902;2022-11-20T12:03:34;2.47;;;1.53;;
18170;SDS011;9210;48.358;10.902;2022-11-20T12:06:05;1.90;;;1.50;;
18170;SDS011;9210;48.358;10.902;2022-11-20T12:08:36;3.63;;;1.67;;
18170;SDS011;9210;48.358;10.902;2022-11-20T12:11:11;2.90;;;1.80;;
18170;SDS011;9210;48.358;10.902;2022-11-20T12:13:42;3.63;;;1.83;;
18170;SDS011;9210;48.358;10.902;2022-11-20T12:16:14;1.90;;;1.40;;
18170;SDS011;9210;48.358;10.902;2022-11-20T12:18:49;2.37;;;1.50;;
18170;SDS011;9210;48.358;10.902;2022-11-20T12:21:18;2.07;;;1.40;;
18170;SDS011;9210;48.358;10.902;2022-11-20T12:23:52;2.13;;;1.70;;
18170;SDS011;9210;48.358;10.902;2022-11-20T12:26:25;2.43;;;1.60;;
18170;SDS011;9210;48.358;10.902;2022-11-20T12:28:58;1.83;;;1.57;;
18170;SDS011;9210;48.358;10.902;2022-11-20T12:31:35;4.70;;;2.40;;
18170;SDS011;9210;48.358;10.902;2022-11-20T12:34:09;5.10;;;2.10;;
18170;SDS011;9210;48.358;10.902;2022-11-20T12:36:44;3.50;;;1.87;;
18170;SDS011;9210;48.358;10.902;2022-11-20T12:39:26;1.97;;;1.53;;
18170;SDS011;9210;48.358;10.902;2022-11-20T12:42:07;2.50;;;1.83;;
18170;SDS011;9210;48.358;10.902;2022-11-20T12:44:59;4.60;;;1.83;;
18170;SDS011;9210;48.358;10.902;2022-11-20T12:47:45;3.00;;;1.97;;
18170;SDS011;9210;48.358;10.902;2022-11-20T12:50:18;4.43;;;2.00;;
18170;SDS011;9210;48.358;10.902;2022-11-20T12:52:51;3.13;;;1.40;;
18170;SDS011;9210;48.358;10.902;2022-11-20T12:55:33;2.87;;;1.73;;
18170;SDS011;9210;48.358;10.902;2022-11-20T12:58:05;2.27;;;1.77;;
18170;SDS011;9210;48.358;10.902;2022-11-20T13:00:39;3.43;;;2.00;;
18170;SDS011;9210;48.358;10.902;2022-11-20T13:03:25;2.50;;;1.80;;
18170;SDS011;9210;48.358;10.902;2022-11-20T13:05:59;2.53;;;1.87;;
18170;SDS011;9210;48.358;10.902;2022-11-20T13:08:32;4.53;;;2.03;;
18170;SDS011;9210;48.358;10.902;2022-11-20T13:11:03;3.87;;;2.13;;
18170;SDS011;9210;48.358;10.902;2022-11-20T13:13:36;3.47;;;1.83;;
18170;SDS011;9210;48.358;10.902;2022-11-20T13:16:10;2.67;;;1.70;;
18170;SDS011;9210;48.358;10.902;2022-11-20T13:18:43;1.83;;;1.63;;
18170;SDS011;9210;48.358;10.902;2022-11-20T13:21:16;3.57;;;1.80;;
18170;SDS011;9210;48.358;10.902;2022-11-20T13:23:44;3.23;;;1.90;;
18170;SDS011;9210;48.358;10.902;2022-11-20T13:26:17;2.30;;;1.50;;
18170;SDS011;9210;48.358;10.902;2022-11-20T13:28:47;3.10;;;2.03;;
18170;SDS011;9210;48.358;10.902;2022-11-20T13:34:04;3.30;;;1.90;;
18170;SDS011;9210;48.358;10.902;2022-11-20T13:36:34;4.63;;;2.10;;
18170;SDS011;9210;48.358;10.902;2022-11-20T13:39:03;3.70;;;2.80;;
18170;SDS011;9210;48.358;10.902;2022-11-20T13:41:34;3.50;;;1.73;;
18170;SDS011;9210;48.358;10.902;2022-11-20T13:44:05;3.83;;;2.00;;
18170;SDS011;9210;48.358;10.902;2022-11-20T13:46:38;4.73;;;2.20;;
18170;SDS011;9210;48.358;10.902;2022-11-20T13:49:10;3.03;;;2.10;;
18170;SDS011;9210;48.358;10.902;2022-11-20T13:51:40;3.53;;;2.20;;
18170;SDS011;9210;48.358;10.902;2022-11-20T13:54:18;4.47;;;2.57;;
18170;SDS011;9210;48.358;10.902;2022-11-20T13:56:54;3.37;;;2.03;;
18170;SDS011;9210;48.358;10.902;2022-11-20T13:59:40;3.10;;;1.80;;
18170;SDS011;9210;48.358;10.902;2022-11-20T14:02:10;4.63;;;2.07;;
18170;SDS011;9210;48.358;10.902;2022-11-20T14:04:42;2.20;;;1.70;;
18170;SDS011;9210;48.358;10.902;2022-11-20T14:07:11;7.33;;;1.70;;
18170;SDS011;9210;48.358;10.902;2022-11-20T14:09:48;2.90;;;1.80;;
18170;SDS011;9210;48.358;10.902;2022-11-20T14:12:17;2.43;;;1.63;;
18170;SDS011;9210;48.358;10.902;2022-11-20T14:14:47;4.67;;;1.83;;
18170;SDS011;9210;48.358;10.902;2022-11-20T14:17:18;3.40;;;1.83;;
18170;SDS011;9210;48.358;10.902;2022-11-20T14:19:49;1.90;;;1.60;;
18170;SDS011;9210;48.358;10.902;2022-11-20T14:22:19;3.53;;;1.63;;
18170;SDS011;9210;48.358;10.902;2022-11-20T14:24:48;3.07;;;1.77;;
18170;SDS011;9210;48.358;10.902;2022-11-20T14:27:17;2.77;;;1.60;;
18170;SDS011;9210;48.358;10.902;2022-11-20T14:29:47;2.40;;;1.53;;
18170;SDS011;9210;48.358;10.902;2022-11-20T14:32:16;4.60;;;2.50;;
18170;SDS011;9210;48.358;10.902;2022-11-20T14:34:53;2.57;;;1.53;;
18170;SDS011;9210;48.358;10.902;2022-11-20T14:37:23;4.07;;;1.70;;
18170;SDS011;9210;48.358;10.902;2022-11-20T14:39:53;4.53;;;1.90;;
18170;SDS011;9210;48.358;10.902;2022-11-20T14:42:22;2.77;;;1.77;;
18170;SDS011;9210;48.358;10.902;2022-11-20T14:44:51;3.23;;;1.90;;
18170;SDS011;9210;48.358;10.902;2022-11-20T14:47:21;3.17;;;1.73;;
18170;SDS011;9210;48.358;10.902;2022-11-20T14:49:51;2.90;;;1.70;;
18170;SDS011;9210;48.358;10.902;2022-11-20T14:52:20;2.90;;;1.53;;
18170;SDS011;9210;48.358;10.902;2022-11-20T14:54:50;4.20;;;1.77;;
18170;SDS011;9210;48.358;10.902;2022-11-20T14:57:21;3.73;;;1.90;;
18170;SDS011;9210;48.358;10.902;2022-11-20T14:59:49;2.70;;;1.67;;
18170;SDS011;9210;48.358;10.902;2022-11-20T15:02:18;3.40;;;2.03;;
18170;SDS011;9210;48.358;10.902;2022-11-20T15:04:47;3.47;;;1.70;;
18170;SDS011;9210;48.358;10.902;2022-11-20T15:07:25;4.00;;;1.80;;
18170;SDS011;9210;48.358;10.902;2022-11-20T15:10:05;3.87;;;2.17;;
18170;SDS011;9210;48.358;10.902;2022-11-20T15:12:35;3.10;;;1.60;;
18170;SDS011;9210;48.358;10.902;2022-11-20T15:15:05;4.07;;;2.13;;